sensor_id;sensor_type;location;lat;lon;timestamp;P1;durP1;ratioP1;P2;durP2;ratioP2
32196;SDS011;18697;42.770;23.400;2024-03-22T00:01:52;13.90;;;7.53;;
32196;SDS011;18697;42.770;23.400;2024-03-22T00:04:18;17.75;;;10.57;;
32196;SDS011;18697;42.770;23.400;2024-03-22T00:06:45;13.45;;;7.95;;
32196;SDS011;18697;42.770;23.400;2024-03-22T00:09:12;11.57;;;5.95;;
32196;SDS011;18697;42.770;23.400;2024-03-22T00:11:39;9.45;;;6.45;;
32196;SDS011;18697;42.770;23.400;2024-03-22T00:14:05;9.70;;;6.95;;
32196;SDS011;18697;42.770;23.400;2024-03-22T00:16:31;10.30;;;6.45;;
32196;SDS011;18697;42.770;23.400;2024-03-22T00:18:56;14.88;;;8.05;;
32196;SDS011;18697;42.770;23.400;2024-03-22T00:21:22;12.65;;;7.25;;
32196;SDS011;18697;42.770;23.400;2024-03-22T00:23:47;14.98;;;7.03;;
32196;SDS011;18697;42.770;23.400;2024-03-22T00:26:13;9.38;;;6.65;;
32196;SDS011;18697;42.770;23.400;2024-03-22T00:28:38;11.23;;;7.03;;
32196;SDS011;18697;42.770;23.400;2024-03-22T00:31:04;11.75;;;8.32;;
32196;SDS011;18697;42.770;23.400;2024-03-22T00:35:55;11.05;;;5.90;;
32196;SDS011;18697;42.770;23.400;2024-03-22T00:38:20;9.38;;;5.63;;
32196;SDS011;18697;42.770;23.400;2024-03-22T00:40:45;12.52;;;6.78;;
32196;SDS011;18697;42.770;23.400;2024-03-22T00:45:36;12.85;;;7.07;;
32196;SDS011;18697;42.770;23.400;2024-03-22T00:48:01;13.75;;;7.72;;
32196;SDS011;18697;42.770;23.400;2024-03-22T00:50:27;14.60;;;8.45;;
32196;SDS011;18697;42.770;23.400;2024-03-22T00:52:54;13.73;;;8.50;;
32196;SDS011;18697;42.770;23.400;2024-03-22T00:55:23;14.27;;;8.55;;
32196;SDS011;18697;42.770;23.400;2024-03-22T00:57:49;18.85;;;10.48;;
32196;SDS011;18697;42.770;23.400;2024-03-22T01:00:14;25.48;;;11.25;;
32196;SDS011;18697;42.770;23.400;2024-03-22T01:02:41;38.67;;;16.23;;
32196;SDS011;18697;42.770;23.400;2024-03-22T01:05:07;44.00;;;19.27;;
32196;SDS011;18697;42.770;23.400;2024-03-22T01:07:32;37.28;;;17.77;;
32196;SDS011;18697;42.770;23.400;2024-03-22T01:09:58;36.60;;;17.50;;
32196;SDS011;18697;42.770;23.400;2024-03-22T01:12:23;36.30;;;16.80;;
32196;SDS011;18697;42.770;23.400;2024-03-22T01:14:48;33.67;;;16.38;;
32196;SDS011;18697;42.770;23.400;2024-03-22T01:17:14;38.08;;;18.30;;
32196;SDS011;18697;42.770;23.400;2024-03-22T01:19:39;38.78;;;19.00;;
32196;SDS011;18697;42.770;23.400;2024-03-22T01:22:05;37.28;;;17.30;;
32196;SDS011;18697;42.770;23.400;2024-03-22T01:24:30;32.47;;;17.55;;
32196;SDS011;18697;42.770;23.400;2024-03-22T01:26:55;41.03;;;19.20;;
32196;SDS011;18697;42.770;23.400;2024-03-22T01:29:21;39.50;;;18.85;;
32196;SDS011;18697;42.770;23.400;2024-03-22T01:31:47;34.00;;;17.10;;
32196;SDS011;18697;42.770;23.400;2024-03-22T01:34:12;26.08;;;13.35;;
32196;SDS011;18697;42.770;23.400;2024-03-22T01:36:38;25.33;;;12.40;;
32196;SDS011;18697;42.770;23.400;2024-03-22T01:39:04;23.02;;;11.13;;
32196;SDS011;18697;42.770;23.400;2024-03-22T01:41:29;20.23;;;9.85;;
32196;SDS011;18697;42.770;23.400;2024-03-22T01:46:20;22.35;;;11.77;;
32196;SDS011;18697;42.770;23.400;2024-03-22T01:48:45;25.17;;;13.65;;
32196;SDS011;18697;42.770;23.400;2024-03-22T01:51:10;30.17;;;15.40;;
32196;SDS011;18697;42.770;23.400;2024-03-22T01:53:37;34.60;;;16.27;;
32196;SDS011;18697;42.770;23.400;2024-03-22T01:56:02;29.38;;;14.80;;
32196;SDS011;18697;42.770;23.400;2024-03-22T01:58:28;32.67;;;15.15;;
32196;SDS011;18697;42.770;23.400;2024-03-22T02:00:54;30.00;;;15.10;;
32196;SDS011;18697;42.770;23.400;2024-03-22T02:03:19;34.78;;;15.45;;
32196;SDS011;18697;42.770;23.400;2024-03-22T02:05:45;26.02;;;14.45;;
32196;SDS011;18697;42.770;23.400;2024-03-22T02:08:10;27.20;;;13.63;;
32196;SDS011;18697;42.770;23.400;2024-03-22T02:10:36;24.30;;;13.65;;
32196;SDS011;18697;42.770;23.400;2024-03-22T02:13:01;21.67;;;11.63;;
32196;SDS011;18697;42.770;23.400;2024-03-22T02:15:26;23.77;;;12.50;;
32196;SDS011;18697;42.770;23.400;2024-03-22T02:17:52;21.58;;;12.00;;
32196;SDS011;18697;42.770;23.400;2024-03-22T02:20:17;19.73;;;10.15;;
32196;SDS011;18697;42.770;23.400;2024-03-22T02:22:43;15.20;;;9.52;;
32196;SDS011;18697;42.770;23.400;2024-03-22T02:25:08;16.73;;;10.10;;
32196;SDS011;18697;42.770;23.400;2024-03-22T02:27:34;18.88;;;10.32;;
32196;SDS011;18697;42.770;23.400;2024-03-22T02:29:59;22.13;;;10.85;;
32196;SDS011;18697;42.770;23.400;2024-03-22T02:32:25;18.95;;;10.00;;
32196;SDS011;18697;42.770;23.400;2024-03-22T02:34:50;18.80;;;10.02;;
32196;SDS011;18697;42.770;23.400;2024-03-22T02:37:16;19.67;;;10.57;;
32196;SDS011;18697;42.770;23.400;2024-03-22T02:39:41;18.63;;;10.20;;
32196;SDS011;18697;42.770;23.400;2024-03-22T02:42:07;29.42;;;14.27;;
32196;SDS011;18697;42.770;23.400;2024-03-22T02:44:32;43.72;;;20.50;;
32196;SDS011;18697;42.770;23.400;2024-03-22T02:46:57;29.02;;;14.90;;
32196;SDS011;18697;42.770;23.400;2024-03-22T02:49:23;51.70;;;24.15;;
32196;SDS011;18697;42.770;23.400;2024-03-22T02:51:50;42.28;;;19.77;;
32196;SDS011;18697;42.770;23.400;2024-03-22T02:54:15;38.95;;;19.75;;
32196;SDS011;18697;42.770;23.400;2024-03-22T02:56:40;36.55;;;17.27;;
32196;SDS011;18697;42.770;23.400;2024-03-22T02:59:06;23.35;;;12.95;;
32196;SDS011;18697;42.770;23.400;2024-03-22T03:01:31;18.17;;;11.27;;
32196;SDS011;18697;42.770;23.400;2024-03-22T03:03:56;20.13;;;11.10;;
32196;SDS011;18697;42.770;23.400;2024-03-22T03:06:22;19.10;;;11.38;;
32196;SDS011;18697;42.770;23.400;2024-03-22T03:08:47;22.48;;;11.88;;
32196;SDS011;18697;42.770;23.400;2024-03-22T03:11:13;21.20;;;12.20;;
32196;SDS011;18697;42.770;23.400;2024-03-22T03:13:39;18.90;;;11.30;;
32196;SDS011;18697;42.770;23.400;2024-03-22T03:16:04;21.63;;;11.80;;
32196;SDS011;18697;42.770;23.400;2024-03-22T03:18:30;23.42;;;12.48;;
32196;SDS011;18697;42.770;23.400;2024-03-22T03:20:55;41.20;;;20.63;;
32196;SDS011;18697;42.770;23.400;2024-03-22T03:23:21;25.70;;;14.02;;
32196;SDS011;18697;42.770;23.400;2024-03-22T03:25:46;25.33;;;13.40;;
32196;SDS011;18697;42.770;23.400;2024-03-22T03:28:11;37.35;;;18.67;;
32196;SDS011;18697;42.770;23.400;2024-03-22T03:30:38;32.95;;;17.75;;
32196;SDS011;18697;42.770;23.400;2024-03-22T03:33:03;34.53;;;17.55;;
32196;SDS011;18697;42.770;23.400;2024-03-22T03:35:29;44.35;;;20.98;;
32196;SDS011;18697;42.770;23.400;2024-03-22T03:37:54;59.47;;;26.92;;
32196;SDS011;18697;42.770;23.400;2024-03-22T03:40:20;39.50;;;21.30;;
32196;SDS011;18697;42.770;23.400;2024-03-22T03:42:46;41.75;;;21.73;;
32196;SDS011;18697;42.770;23.400;2024-03-22T03:45:12;42.30;;;19.67;;
32196;SDS011;18697;42.770;23.400;2024-03-22T03:47:37;34.38;;;18.35;;
32196;SDS011;18697;42.770;23.400;2024-03-22T03:50:03;34.83;;;19.10;;
32196;SDS011;18697;42.770;23.400;2024-03-22T03:52:28;33.20;;;17.85;;
32196;SDS011;18697;42.770;23.400;2024-03-22T03:54:54;35.17;;;18.70;;
32196;SDS011;18697;42.770;23.400;2024-03-22T03:57:19;41.13;;;21.10;;
32196;SDS011;18697;42.770;23.400;2024-03-22T03:59:44;35.95;;;19.48;;
32196;SDS011;18697;42.770;23.400;2024-03-22T04:02:10;27.40;;;14.38;;
32196;SDS011;18697;42.770;23.400;2024-03-22T04:04:35;24.17;;;13.77;;
32196;SDS011;18697;42.770;23.400;2024-03-22T04:07:00;52.13;;;29.90;;
32196;SDS011;18697;42.770;23.400;2024-03-22T04:09:26;30.10;;;17.20;;
32196;SDS011;18697;42.770;23.400;2024-03-22T04:11:51;26.65;;;14.88;;
32196;SDS011;18697;42.770;23.400;2024-03-22T04:14:16;24.85;;;14.07;;
32196;SDS011;18697;42.770;23.400;2024-03-22T04:16:42;26.70;;;14.75;;
32196;SDS011;18697;42.770;23.400;2024-03-22T04:19:07;25.98;;;15.02;;
32196;SDS011;18697;42.770;23.400;2024-03-22T04:21:33;26.48;;;14.27;;
32196;SDS011;18697;42.770;23.400;2024-03-22T04:23:58;27.75;;;15.73;;
32196;SDS011;18697;42.770;23.400;2024-03-22T04:26:23;28.65;;;14.48;;
32196;SDS011;18697;42.770;23.400;2024-03-22T04:28:49;26.05;;;13.88;;
32196;SDS011;18697;42.770;23.400;2024-03-22T04:31:14;22.30;;;12.77;;
32196;SDS011;18697;42.770;23.400;2024-03-22T04:33:40;23.73;;;12.50;;
32196;SDS011;18697;42.770;23.400;2024-03-22T04:36:06;18.60;;;12.80;;
32196;SDS011;18697;42.770;23.400;2024-03-22T04:38:34;28.80;;;15.95;;
32196;SDS011;18697;42.770;23.400;2024-03-22T04:40:59;32.97;;;19.17;;
32196;SDS011;18697;42.770;23.400;2024-03-22T04:43:26;31.55;;;19.85;;
32196;SDS011;18697;42.770;23.400;2024-03-22T04:45:51;31.35;;;16.73;;
32196;SDS011;18697;42.770;23.400;2024-03-22T04:48:18;46.00;;;24.25;;
32196;SDS011;18697;42.770;23.400;2024-03-22T04:50:45;43.75;;;20.95;;
32196;SDS011;18697;42.770;23.400;2024-03-22T04:53:13;30.83;;;17.80;;
32196;SDS011;18697;42.770;23.400;2024-03-22T04:55:38;38.53;;;18.45;;
32196;SDS011;18697;42.770;23.400;2024-03-22T04:58:09;42.58;;;19.65;;
32196;SDS011;18697;42.770;23.400;2024-03-22T05:00:35;49.10;;;21.30;;
32196;SDS011;18697;42.770;23.400;2024-03-22T05:03:00;40.80;;;19.73;;
32196;SDS011;18697;42.770;23.400;2024-03-22T05:05:26;51.47;;;22.83;;
32196;SDS011;18697;42.770;23.400;2024-03-22T05:07:51;35.53;;;19.90;;
32196;SDS011;18697;42.770;23.400;2024-03-22T05:10:16;40.00;;;17.65;;
32196;SDS011;18697;42.770;23.400;2024-03-22T05:12:42;33.33;;;16.55;;
32196;SDS011;18697;42.770;23.400;2024-03-22T05:15:08;26.80;;;15.80;;
32196;SDS011;18697;42.770;23.400;2024-03-22T05:17:33;32.38;;;17.67;;
32196;SDS011;18697;42.770;23.400;2024-03-22T05:19:59;35.13;;;18.48;;
32196;SDS011;18697;42.770;23.400;2024-03-22T05:22:24;29.73;;;18.08;;
32196;SDS011;18697;42.770;23.400;2024-03-22T05:24:50;36.00;;;19.70;;
32196;SDS011;18697;42.770;23.400;2024-03-22T05:27:15;36.83;;;17.05;;
32196;SDS011;18697;42.770;23.400;2024-03-22T05:29:41;44.97;;;19.60;;
32196;SDS011;18697;42.770;23.400;2024-03-22T05:32:07;39.88;;;17.35;;
32196;SDS011;18697;42.770;23.400;2024-03-22T05:34:32;30.27;;;16.38;;
32196;SDS011;18697;42.770;23.400;2024-03-22T05:36:57;31.73;;;16.42;;
32196;SDS011;18697;42.770;23.400;2024-03-22T05:39:24;33.30;;;16.42;;
32196;SDS011;18697;42.770;23.400;2024-03-22T05:41:49;38.60;;;21.73;;
32196;SDS011;18697;42.770;23.400;2024-03-22T05:44:14;33.10;;;18.20;;
32196;SDS011;18697;42.770;23.400;2024-03-22T05:46:40;28.67;;;15.38;;
32196;SDS011;18697;42.770;23.400;2024-03-22T05:49:05;36.30;;;16.60;;
32196;SDS011;18697;42.770;23.400;2024-03-22T05:51:30;25.85;;;14.77;;
32196;SDS011;18697;42.770;23.400;2024-03-22T05:53:56;20.88;;;12.45;;
32196;SDS011;18697;42.770;23.400;2024-03-22T05:56:22;28.17;;;14.13;;
32196;SDS011;18697;42.770;23.400;2024-03-22T05:58:47;23.08;;;11.95;;
32196;SDS011;18697;42.770;23.400;2024-03-22T06:01:13;29.90;;;13.52;;
32196;SDS011;18697;42.770;23.400;2024-03-22T06:03:38;49.53;;;21.75;;
32196;SDS011;18697;42.770;23.400;2024-03-22T06:06:04;33.08;;;15.80;;
32196;SDS011;18697;42.770;23.400;2024-03-22T06:08:29;19.10;;;10.40;;
32196;SDS011;18697;42.770;23.400;2024-03-22T06:10:56;19.58;;;11.23;;
32196;SDS011;18697;42.770;23.400;2024-03-22T06:13:22;19.13;;;11.38;;
32196;SDS011;18697;42.770;23.400;2024-03-22T06:18:13;17.35;;;9.77;;
32196;SDS011;18697;42.770;23.400;2024-03-22T06:20:38;19.88;;;9.90;;
32196;SDS011;18697;42.770;23.400;2024-03-22T06:23:04;21.83;;;9.82;;
32196;SDS011;18697;42.770;23.400;2024-03-22T06:27:54;18.83;;;9.63;;
32196;SDS011;18697;42.770;23.400;2024-03-22T06:32:45;14.68;;;9.48;;
32196;SDS011;18697;42.770;23.400;2024-03-22T06:35:11;16.08;;;10.35;;
32196;SDS011;18697;42.770;23.400;2024-03-22T06:40:02;38.92;;;18.10;;
32196;SDS011;18697;42.770;23.400;2024-03-22T06:44:53;30.58;;;15.00;;
32196;SDS011;18697;42.770;23.400;2024-03-22T06:49:45;27.40;;;13.63;;
32196;SDS011;18697;42.770;23.400;2024-03-22T06:52:11;28.45;;;14.55;;
32196;SDS011;18697;42.770;23.400;2024-03-22T06:54:36;29.63;;;13.15;;
32196;SDS011;18697;42.770;23.400;2024-03-22T06:57:04;24.83;;;12.60;;
32196;SDS011;18697;42.770;23.400;2024-03-22T06:59:30;23.13;;;10.85;;
32196;SDS011;18697;42.770;23.400;2024-03-22T07:01:55;18.85;;;10.73;;
32196;SDS011;18697;42.770;23.400;2024-03-22T07:04:21;17.08;;;10.10;;
32196;SDS011;18697;42.770;23.400;2024-03-22T07:06:47;17.58;;;11.13;;
32196;SDS011;18697;42.770;23.400;2024-03-22T07:11:38;14.75;;;9.32;;
32196;SDS011;18697;42.770;23.400;2024-03-22T07:14:03;16.27;;;9.68;;
32196;SDS011;18697;42.770;23.400;2024-03-22T07:16:29;13.10;;;9.25;;
32196;SDS011;18697;42.770;23.400;2024-03-22T07:21:19;19.73;;;9.10;;
32196;SDS011;18697;42.770;23.400;2024-03-22T07:23:45;13.85;;;9.30;;
32196;SDS011;18697;42.770;23.400;2024-03-22T07:28:35;9.68;;;6.28;;
32196;SDS011;18697;42.770;23.400;2024-03-22T07:31:02;12.85;;;6.10;;
32196;SDS011;18697;42.770;23.400;2024-03-22T07:33:27;10.82;;;7.20;;
32196;SDS011;18697;42.770;23.400;2024-03-22T07:38:19;14.57;;;7.05;;
32196;SDS011;18697;42.770;23.400;2024-03-22T07:40:45;14.02;;;7.30;;
32196;SDS011;18697;42.770;23.400;2024-03-22T07:43:11;10.25;;;6.68;;
32196;SDS011;18697;42.770;23.400;2024-03-22T07:45:38;12.40;;;6.95;;
32196;SDS011;18697;42.770;23.400;2024-03-22T07:48:04;10.85;;;7.18;;
32196;SDS011;18697;42.770;23.400;2024-03-22T07:50:29;8.43;;;6.07;;
32196;SDS011;18697;42.770;23.400;2024-03-22T07:52:55;10.32;;;6.95;;
32196;SDS011;18697;42.770;23.400;2024-03-22T07:55:21;9.48;;;6.45;;
32196;SDS011;18697;42.770;23.400;2024-03-22T07:57:47;10.90;;;6.68;;
32196;SDS011;18697;42.770;23.400;2024-03-22T08:00:13;22.02;;;6.65;;
32196;SDS011;18697;42.770;23.400;2024-03-22T08:02:39;11.90;;;6.05;;
32196;SDS011;18697;42.770;23.400;2024-03-22T08:05:04;9.73;;;6.43;;
32196;SDS011;18697;42.770;23.400;2024-03-22T08:07:31;8.23;;;5.93;;
32196;SDS011;18697;42.770;23.400;2024-03-22T08:09:57;11.80;;;6.07;;
32196;SDS011;18697;42.770;23.400;2024-03-22T08:12:23;9.40;;;4.68;;
32196;SDS011;18697;42.770;23.400;2024-03-22T08:14:49;11.55;;;4.72;;
32196;SDS011;18697;42.770;23.400;2024-03-22T08:17:15;8.52;;;4.32;;
32196;SDS011;18697;42.770;23.400;2024-03-22T08:19:41;5.60;;;4.50;;
32196;SDS011;18697;42.770;23.400;2024-03-22T08:24:31;5.88;;;3.97;;
32196;SDS011;18697;42.770;23.400;2024-03-22T08:26:57;6.68;;;3.78;;
32196;SDS011;18697;42.770;23.400;2024-03-22T08:29:22;4.65;;;4.07;;
32196;SDS011;18697;42.770;23.400;2024-03-22T08:34:12;6.80;;;3.70;;
32196;SDS011;18697;42.770;23.400;2024-03-22T08:36:38;8.13;;;4.05;;
32196;SDS011;18697;42.770;23.400;2024-03-22T08:39:04;6.78;;;3.75;;
32196;SDS011;18697;42.770;23.400;2024-03-22T08:41:30;4.28;;;3.88;;
32196;SDS011;18697;42.770;23.400;2024-03-22T08:43:55;4.32;;;3.60;;
32196;SDS011;18697;42.770;23.400;2024-03-22T08:46:22;6.60;;;4.35;;
32196;SDS011;18697;42.770;23.400;2024-03-22T08:48:49;5.03;;;4.05;;
32196;SDS011;18697;42.770;23.400;2024-03-22T08:51:15;8.45;;;4.32;;
32196;SDS011;18697;42.770;23.400;2024-03-22T08:56:05;9.60;;;3.88;;
32196;SDS011;18697;42.770;23.400;2024-03-22T08:58:31;4.88;;;3.45;;
32196;SDS011;18697;42.770;23.400;2024-03-22T09:00:56;5.50;;;3.97;;
32196;SDS011;18697;42.770;23.400;2024-03-22T09:05:47;6.65;;;4.05;;
32196;SDS011;18697;42.770;23.400;2024-03-22T09:08:12;5.68;;;4.10;;
32196;SDS011;18697;42.770;23.400;2024-03-22T09:13:03;5.55;;;3.90;;
32196;SDS011;18697;42.770;23.400;2024-03-22T09:15:28;4.40;;;3.50;;
32196;SDS011;18697;42.770;23.400;2024-03-22T09:20:19;6.28;;;3.47;;
32196;SDS011;18697;42.770;23.400;2024-03-22T09:22:45;6.47;;;3.70;;
32196;SDS011;18697;42.770;23.400;2024-03-22T09:25:11;5.15;;;3.70;;
32196;SDS011;18697;42.770;23.400;2024-03-22T09:27:36;7.07;;;4.05;;
32196;SDS011;18697;42.770;23.400;2024-03-22T09:30:02;5.32;;;3.47;;
32196;SDS011;18697;42.770;23.400;2024-03-22T09:32:29;9.13;;;3.85;;
32196;SDS011;18697;42.770;23.400;2024-03-22T09:34:54;6.40;;;3.83;;
32196;SDS011;18697;42.770;23.400;2024-03-22T09:37:20;5.35;;;3.72;;
32196;SDS011;18697;42.770;23.400;2024-03-22T09:39:45;5.00;;;4.00;;
32196;SDS011;18697;42.770;23.400;2024-03-22T09:42:12;8.55;;;3.92;;
32196;SDS011;18697;42.770;23.400;2024-03-22T09:44:46;4.45;;;3.40;;
32196;SDS011;18697;42.770;23.400;2024-03-22T09:47:14;6.70;;;3.03;;
32196;SDS011;18697;42.770;23.400;2024-03-22T09:49:40;4.55;;;3.75;;
32196;SDS011;18697;42.770;23.400;2024-03-22T09:52:08;3.30;;;3.00;;
32196;SDS011;18697;42.770;23.400;2024-03-22T09:54:35;5.72;;;3.40;;
32196;SDS011;18697;42.770;23.400;2024-03-22T09:57:00;6.40;;;3.13;;
32196;SDS011;18697;42.770;23.400;2024-03-22T09:59:26;6.50;;;3.90;;
32196;SDS011;18697;42.770;23.400;2024-03-22T10:01:51;5.00;;;3.05;;
32196;SDS011;18697;42.770;23.400;2024-03-22T10:04:18;6.13;;;4.00;;
32196;SDS011;18697;42.770;23.400;2024-03-22T10:06:44;6.50;;;4.30;;
32196;SDS011;18697;42.770;23.400;2024-03-22T10:09:12;7.05;;;3.50;;
32196;SDS011;18697;42.770;23.400;2024-03-22T10:11:37;6.97;;;3.17;;
32196;SDS011;18697;42.770;23.400;2024-03-22T10:14:03;8.40;;;3.85;;
32196;SDS011;18697;42.770;23.400;2024-03-22T10:16:34;5.25;;;3.60;;
32196;SDS011;18697;42.770;23.400;2024-03-22T10:18:59;4.55;;;3.20;;
32196;SDS011;18697;42.770;23.400;2024-03-22T10:21:25;28.60;;;4.97;;
32196;SDS011;18697;42.770;23.400;2024-03-22T10:23:53;3.50;;;2.83;;
32196;SDS011;18697;42.770;23.400;2024-03-22T10:26:18;3.80;;;3.45;;
32196;SDS011;18697;42.770;23.400;2024-03-22T10:28:46;4.38;;;3.17;;
32196;SDS011;18697;42.770;23.400;2024-03-22T10:31:12;4.18;;;3.42;;
32196;SDS011;18697;42.770;23.400;2024-03-22T10:33:39;3.95;;;2.80;;
32196;SDS011;18697;42.770;23.400;2024-03-22T10:36:05;6.13;;;3.33;;
32196;SDS011;18697;42.770;23.400;2024-03-22T10:38:32;7.32;;;3.63;;
32196;SDS011;18697;42.770;23.400;2024-03-22T10:40:58;5.38;;;3.33;;
32196;SDS011;18697;42.770;23.400;2024-03-22T10:43:25;3.20;;;2.90;;
32196;SDS011;18697;42.770;23.400;2024-03-22T10:45:51;3.60;;;3.13;;
32196;SDS011;18697;42.770;23.400;2024-03-22T10:48:19;4.15;;;2.95;;
32196;SDS011;18697;42.770;23.400;2024-03-22T10:50:52;2.83;;;2.60;;
32196;SDS011;18697;42.770;23.400;2024-03-22T10:53:24;4.22;;;3.13;;
32196;SDS011;18697;42.770;23.400;2024-03-22T10:55:50;2.80;;;2.53;;
32196;SDS011;18697;42.770;23.400;2024-03-22T10:58:18;3.35;;;2.92;;
32196;SDS011;18697;42.770;23.400;2024-03-22T11:00:46;6.85;;;3.13;;
32196;SDS011;18697;42.770;23.400;2024-03-22T11:03:12;4.55;;;3.30;;
32196;SDS011;18697;42.770;23.400;2024-03-22T11:05:44;3.30;;;2.70;;
32196;SDS011;18697;42.770;23.400;2024-03-22T11:08:22;3.50;;;2.40;;
32196;SDS011;18697;42.770;23.400;2024-03-22T11:10:54;3.78;;;3.00;;
32196;SDS011;18697;42.770;23.400;2024-03-22T11:13:22;7.80;;;3.00;;
32196;SDS011;18697;42.770;23.400;2024-03-22T11:15:48;7.10;;;2.60;;
32196;SDS011;18697;42.770;23.400;2024-03-22T11:18:14;2.83;;;2.60;;
32196;SDS011;18697;42.770;23.400;2024-03-22T11:20:40;7.95;;;2.78;;
32196;SDS011;18697;42.770;23.400;2024-03-22T11:23:07;4.68;;;3.03;;
32196;SDS011;18697;42.770;23.400;2024-03-22T11:25:34;4.45;;;2.58;;
32196;SDS011;18697;42.770;23.400;2024-03-22T11:28:00;3.10;;;2.80;;
32196;SDS011;18697;42.770;23.400;2024-03-22T11:30:29;3.85;;;2.42;;
32196;SDS011;18697;42.770;23.400;2024-03-22T11:32:56;2.55;;;2.28;;
32196;SDS011;18697;42.770;23.400;2024-03-22T11:35:22;4.82;;;2.72;;
32196;SDS011;18697;42.770;23.400;2024-03-22T11:37:48;5.45;;;2.75;;
32196;SDS011;18697;42.770;23.400;2024-03-22T11:40:16;2.72;;;2.53;;
32196;SDS011;18697;42.770;23.400;2024-03-22T11:42:42;4.05;;;2.63;;
32196;SDS011;18697;42.770;23.400;2024-03-22T11:45:14;4.40;;;2.42;;
32196;SDS011;18697;42.770;23.400;2024-03-22T11:47:41;5.20;;;2.70;;
32196;SDS011;18697;42.770;23.400;2024-03-22T11:50:07;13.48;;;5.63;;
32196;SDS011;18697;42.770;23.400;2024-03-22T11:52:34;17.83;;;6.68;;
32196;SDS011;18697;42.770;23.400;2024-03-22T11:55:00;2.97;;;2.42;;
32196;SDS011;18697;42.770;23.400;2024-03-22T11:57:26;5.32;;;3.00;;
32196;SDS011;18697;42.770;23.400;2024-03-22T11:59:51;5.78;;;3.17;;
32196;SDS011;18697;42.770;23.400;2024-03-22T12:02:17;3.50;;;2.88;;
32196;SDS011;18697;42.770;23.400;2024-03-22T12:04:43;3.22;;;2.92;;
32196;SDS011;18697;42.770;23.400;2024-03-22T12:07:11;4.05;;;2.88;;
32196;SDS011;18697;42.770;23.400;2024-03-22T12:09:39;2.85;;;2.55;;
32196;SDS011;18697;42.770;23.400;2024-03-22T12:12:06;4.03;;;2.80;;
32196;SDS011;18697;42.770;23.400;2024-03-22T12:14:34;3.65;;;2.83;;
32196;SDS011;18697;42.770;23.400;2024-03-22T12:16:59;3.97;;;2.60;;
32196;SDS011;18697;42.770;23.400;2024-03-22T12:19:25;3.40;;;2.97;;
32196;SDS011;18697;42.770;23.400;2024-03-22T12:21:50;3.72;;;2.88;;
32196;SDS011;18697;42.770;23.400;2024-03-22T12:24:16;3.28;;;2.70;;
32196;SDS011;18697;42.770;23.400;2024-03-22T12:26:41;6.18;;;3.05;;
32196;SDS011;18697;42.770;23.400;2024-03-22T12:29:06;4.47;;;2.92;;
32196;SDS011;18697;42.770;23.400;2024-03-22T12:31:32;4.00;;;2.92;;
32196;SDS011;18697;42.770;23.400;2024-03-22T12:33:58;2.67;;;2.42;;
32196;SDS011;18697;42.770;23.400;2024-03-22T12:36:23;3.00;;;2.40;;
32196;SDS011;18697;42.770;23.400;2024-03-22T12:38:49;3.85;;;2.90;;
32196;SDS011;18697;42.770;23.400;2024-03-22T12:41:14;4.25;;;2.63;;
32196;SDS011;18697;42.770;23.400;2024-03-22T12:43:40;5.57;;;2.75;;
32196;SDS011;18697;42.770;23.400;2024-03-22T12:46:07;5.43;;;3.58;;
32196;SDS011;18697;42.770;23.400;2024-03-22T12:48:33;4.63;;;3.05;;
32196;SDS011;18697;42.770;23.400;2024-03-22T12:50:58;4.80;;;3.63;;
32196;SDS011;18697;42.770;23.400;2024-03-22T12:53:24;8.30;;;3.65;;
32196;SDS011;18697;42.770;23.400;2024-03-22T12:55:50;5.80;;;2.78;;
32196;SDS011;18697;42.770;23.400;2024-03-22T12:58:15;7.72;;;3.90;;
32196;SDS011;18697;42.770;23.400;2024-03-22T13:00:40;3.63;;;2.63;;
32196;SDS011;18697;42.770;23.400;2024-03-22T13:03:06;3.15;;;2.50;;
32196;SDS011;18697;42.770;23.400;2024-03-22T13:05:31;4.40;;;2.90;;
32196;SDS011;18697;42.770;23.400;2024-03-22T13:07:56;12.90;;;5.82;;
32196;SDS011;18697;42.770;23.400;2024-03-22T13:10:22;4.43;;;3.67;;
32196;SDS011;18697;42.770;23.400;2024-03-22T13:12:47;5.82;;;2.60;;
32196;SDS011;18697;42.770;23.400;2024-03-22T13:15:12;4.90;;;2.92;;
32196;SDS011;18697;42.770;23.400;2024-03-22T13:17:38;4.03;;;2.50;;
32196;SDS011;18697;42.770;23.400;2024-03-22T13:20:04;3.97;;;2.70;;
32196;SDS011;18697;42.770;23.400;2024-03-22T13:22:35;5.47;;;3.28;;
32196;SDS011;18697;42.770;23.400;2024-03-22T13:25:04;4.45;;;2.80;;
32196;SDS011;18697;42.770;23.400;2024-03-22T13:27:32;5.28;;;3.42;;
32196;SDS011;18697;42.770;23.400;2024-03-22T13:29:59;11.80;;;3.15;;
32196;SDS011;18697;42.770;23.400;2024-03-22T13:32:25;4.65;;;2.97;;
32196;SDS011;18697;42.770;23.400;2024-03-22T13:34:50;6.22;;;3.50;;
32196;SDS011;18697;42.770;23.400;2024-03-22T13:37:16;8.55;;;5.60;;
32196;SDS011;18697;42.770;23.400;2024-03-22T13:39:41;5.40;;;3.53;;
32196;SDS011;18697;42.770;23.400;2024-03-22T13:42:06;8.82;;;3.72;;
32196;SDS011;18697;42.770;23.400;2024-03-22T13:44:32;8.07;;;5.00;;
32196;SDS011;18697;42.770;23.400;2024-03-22T13:46:58;4.60;;;2.70;;
32196;SDS011;18697;42.770;23.400;2024-03-22T13:49:23;4.13;;;3.00;;
32196;SDS011;18697;42.770;23.400;2024-03-22T13:51:49;4.38;;;3.30;;
32196;SDS011;18697;42.770;23.400;2024-03-22T13:54:15;6.72;;;3.05;;
32196;SDS011;18697;42.770;23.400;2024-03-22T13:56:40;6.30;;;3.13;;
32196;SDS011;18697;42.770;23.400;2024-03-22T13:59:06;4.28;;;3.20;;
32196;SDS011;18697;42.770;23.400;2024-03-22T14:01:34;11.77;;;3.90;;
32196;SDS011;18697;42.770;23.400;2024-03-22T14:04:00;8.27;;;3.92;;
32196;SDS011;18697;42.770;23.400;2024-03-22T14:06:26;5.90;;;3.30;;
32196;SDS011;18697;42.770;23.400;2024-03-22T14:08:52;3.95;;;3.30;;
32196;SDS011;18697;42.770;23.400;2024-03-22T14:11:19;5.32;;;3.25;;
32196;SDS011;18697;42.770;23.400;2024-03-22T14:13:45;3.10;;;2.78;;
32196;SDS011;18697;42.770;23.400;2024-03-22T14:16:10;4.88;;;2.90;;
32196;SDS011;18697;42.770;23.400;2024-03-22T14:18:36;2.70;;;2.50;;
32196;SDS011;18697;42.770;23.400;2024-03-22T14:21:02;6.80;;;3.13;;
32196;SDS011;18697;42.770;23.400;2024-03-22T14:23:27;7.90;;;3.30;;
32196;SDS011;18697;42.770;23.400;2024-03-22T14:25:54;4.03;;;3.00;;
32196;SDS011;18697;42.770;23.400;2024-03-22T14:28:20;5.70;;;3.28;;
32196;SDS011;18697;42.770;23.400;2024-03-22T14:30:46;5.03;;;3.50;;
32196;SDS011;18697;42.770;23.400;2024-03-22T14:33:12;6.78;;;3.70;;
32196;SDS011;18697;42.770;23.400;2024-03-22T14:35:37;5.70;;;3.88;;
32196;SDS011;18697;42.770;23.400;2024-03-22T14:38:03;4.65;;;3.28;;
32196;SDS011;18697;42.770;23.400;2024-03-22T14:40:28;7.70;;;3.50;;
32196;SDS011;18697;42.770;23.400;2024-03-22T14:42:56;11.23;;;4.25;;
32196;SDS011;18697;42.770;23.400;2024-03-22T14:45:21;14.77;;;3.42;;
32196;SDS011;18697;42.770;23.400;2024-03-22T14:47:47;4.07;;;3.35;;
32196;SDS011;18697;42.770;23.400;2024-03-22T14:50:12;11.70;;;5.90;;
32196;SDS011;18697;42.770;23.400;2024-03-22T14:52:37;6.82;;;5.03;;
32196;SDS011;18697;42.770;23.400;2024-03-22T14:55:04;7.45;;;4.38;;
32196;SDS011;18697;42.770;23.400;2024-03-22T14:57:30;5.70;;;3.55;;
32196;SDS011;18697;42.770;23.400;2024-03-22T14:59:55;6.55;;;4.65;;
32196;SDS011;18697;42.770;23.400;2024-03-22T15:02:21;8.65;;;4.88;;